createdAt,value
2022-11-18T00:01:30.747Z,99909.38
2022-11-18T00:03:59.067Z,99919.47
2022-11-18T00:06:28.757Z,99915.75
2022-11-18T00:09:01.405Z,99910.03
2022-11-18T00:11:47.834Z,99918.09
2022-11-18T00:14:20.904Z,99862.03
2022-11-18T00:16:51.663Z,99919.09
2022-11-18T00:19:20.782Z,99920.13
2022-11-18T00:21:49.552Z,99908.06
2022-11-18T00:24:20.023Z,99912.44
2022-11-18T00:26:48.423Z,99912.97
2022-11-18T00:29:17.883Z,99888.69
2022-11-18T00:31:46.677Z,99911.09
2022-11-18T00:34:16.868Z,99923.31
2022-11-18T00:36:46.224Z,99929.38
2022-11-18T00:39:17.219Z,99928.56
2022-11-18T00:42:04.926Z,99934.44
2022-11-18T00:44:33.304Z,99942.22
2022-11-18T00:47:02.073Z,99891.31
2022-11-18T00:49:30.752Z,99939.22
2022-11-18T00:51:59.157Z,99962.41
2022-11-18T00:54:27.452Z,99967.81
2022-11-18T00:56:57.216Z,99973.88
2022-11-18T00:59:25.565Z,99981.63
2022-11-18T01:01:53.965Z,99987.31
2022-11-18T01:04:22.413Z,99946.38
2022-11-18T01:06:50.746Z,99984.19
2022-11-18T01:09:19.352Z,99988.91
2022-11-18T01:12:05.610Z,99988.09
2022-11-18T01:14:35.416Z,99997.16
2022-11-18T01:17:03.907Z,99997.38
2022-11-18T01:19:32.374Z,99995.22
2022-11-18T01:22:03.393Z,99998.91
2022-11-18T01:24:32.117Z,100003.41
2022-11-18T01:27:00.406Z,99998.06
2022-11-18T01:29:28.823Z,100002.47
2022-11-18T01:34:47.704Z,100002.63
2022-11-18T01:37:15.955Z,100010.53
2022-11-18T01:39:44.201Z,100014.38
2022-11-18T01:42:16.093Z,99970.88
2022-11-18T01:45:16.775Z,100024.03
2022-11-18T01:47:50.957Z,100034.38
2022-11-18T01:50:21.716Z,100040.19
2022-11-18T01:52:52.339Z,100033.16
2022-11-18T01:55:26.072Z,100044.69
2022-11-18T01:58:02.132Z,100039.66
2022-11-18T02:00:30.719Z,100038.63
2022-11-18T02:03:03.191Z,100038.63
2022-11-18T02:05:33.816Z,100040.63
2022-11-18T02:08:03.001Z,100038.59
2022-11-18T02:10:31.333Z,100043.94
2022-11-18T02:13:01.796Z,100024.31
2022-11-18T02:15:44.961Z,100050.75
2022-11-18T02:18:25.112Z,100053.91
2022-11-18T02:20:57.962Z,100022.22
2022-11-18T02:24:07.253Z,100055.00
2022-11-18T02:27:06.171Z,100061.13
2022-11-18T02:29:41.104Z,100057.41
2022-11-18T02:32:14.873Z,100061.06
2022-11-18T02:34:50.116Z,100060.25
2022-11-18T02:37:24.220Z,100067.91
2022-11-18T02:39:58.967Z,100063.19
2022-11-18T02:42:30.714Z,100057.63
2022-11-18T02:45:05.813Z,100058.09
2022-11-18T02:47:36.547Z,100043.34
2022-11-18T02:50:08.045Z,100064.25
2022-11-18T02:52:38.747Z,100039.91
2022-11-18T02:55:10.757Z,100066.72
2022-11-18T02:57:41.352Z,100069.88
2022-11-18T03:00:12.487Z,100080.53
2022-11-18T03:02:46.450Z,100075.84
2022-11-18T03:05:33.344Z,100083.22
2022-11-18T03:08:05.162Z,100077.34
2022-11-18T03:10:40.926Z,100038.38
2022-11-18T03:13:20.349Z,100084.66
2022-11-18T03:15:57.591Z,100088.75
2022-11-18T03:18:35.025Z,100083.44
2022-11-18T03:21:09.854Z,100089.06
2022-11-18T03:23:42.244Z,100088.91
2022-11-18T03:26:15.229Z,100091.03
2022-11-18T03:28:49.404Z,100085.28
2022-11-18T03:31:24.398Z,100088.94
2022-11-18T03:33:58.101Z,100096.53
2022-11-18T03:36:31.202Z,100100.88
2022-11-18T03:39:02.018Z,100074.63
2022-11-18T03:41:33.835Z,100113.25
2022-11-18T03:44:09.080Z,100087.56
2022-11-18T03:46:43.069Z,99938.06
2022-11-18T03:49:18.172Z,100131.03
2022-11-18T03:51:51.413Z,100134.13
2022-11-18T03:54:24.749Z,100142.56
2022-11-18T03:56:59.006Z,100130.50
2022-11-18T03:59:33.335Z,100153.75
2022-11-18T04:02:09.738Z,100153.97
2022-11-18T04:04:38.510Z,100156.88
2022-11-18T04:07:14.263Z,100117.72
2022-11-18T04:09:48.841Z,100161.88
2022-11-18T04:12:20.275Z,100121.78
2022-11-18T04:14:50.039Z,100166.59
2022-11-18T04:17:23.197Z,100119.78
2022-11-18T04:19:51.638Z,100176.75
2022-11-18T04:22:20.830Z,100148.94
2022-11-18T04:24:49.175Z,100181.84
2022-11-18T04:27:17.785Z,100173.13
2022-11-18T04:29:46.095Z,100187.47
2022-11-18T04:32:14.451Z,100185.63
2022-11-18T04:34:44.191Z,100193.91
2022-11-18T04:37:12.450Z,100199.84
2022-11-18T04:39:40.738Z,100194.25
2022-11-18T04:42:09.254Z,100199.22
2022-11-18T04:44:37.640Z,100183.84
2022-11-18T04:47:08.206Z,100200.22
2022-11-18T04:49:37.182Z,100204.31
2022-11-18T04:52:07.256Z,100188.53
2022-11-18T04:54:35.631Z,100200.81
2022-11-18T04:57:04.236Z,100207.41
2022-11-18T04:59:32.701Z,100206.75
2022-11-18T05:02:02.111Z,100210.28
2022-11-18T05:04:32.798Z,100210.16
2022-11-18T05:07:02.990Z,100203.00
2022-11-18T05:09:33.005Z,100205.94
2022-11-18T05:12:19.599Z,100202.28
2022-11-18T05:14:50.592Z,100200.59
2022-11-18T05:17:20.184Z,100212.50
2022-11-18T05:19:48.391Z,100215.47
2022-11-18T05:22:17.538Z,100204.25
2022-11-18T05:24:47.336Z,100214.22
2022-11-18T05:27:15.948Z,100224.16
2022-11-18T05:29:44.437Z,100219.38
2022-11-18T05:32:13.081Z,100212.78
2022-11-18T05:34:41.781Z,100218.69
2022-11-18T05:37:10.110Z,100205.72
2022-11-18T05:39:38.563Z,100209.78
2022-11-18T05:42:25.847Z,100209.66
2022-11-18T05:44:58.111Z,100226.19
2022-11-18T05:47:27.016Z,100231.66
2022-11-18T05:49:55.286Z,100233.75
2022-11-18T05:52:23.633Z,100238.94
2022-11-18T05:54:52.261Z,100237.81
2022-11-18T05:57:23.015Z,100239.34
2022-11-18T05:59:51.420Z,100245.09
2022-11-18T06:02:25.398Z,100244.13
2022-11-18T06:04:59.165Z,100254.91
2022-11-18T06:07:30.129Z,100253.66
2022-11-18T06:10:05.577Z,100258.88
2022-11-18T06:12:40.253Z,100268.75
2022-11-18T06:15:13.146Z,100266.78
2022-11-18T06:17:46.427Z,100265.53
2022-11-18T06:20:14.951Z,100269.06
2022-11-18T06:22:46.532Z,100272.25
2022-11-18T06:25:15.758Z,100278.69
2022-11-18T06:27:45.882Z,100277.31
2022-11-18T06:30:15.615Z,100279.81
2022-11-18T06:32:43.877Z,100279.97
2022-11-18T06:35:12.234Z,100291.31
2022-11-18T06:37:40.467Z,100295.94
2022-11-18T06:40:10.080Z,100303.56
2022-11-18T06:42:55.961Z,100311.81
2022-11-18T06:45:25.757Z,100313.22
2022-11-18T06:47:56.951Z,100324.53
2022-11-18T06:50:25.413Z,100329.88
2022-11-18T06:52:53.894Z,100333.25
2022-11-18T06:55:22.337Z,100337.44
2022-11-18T06:57:50.651Z,100347.13
2022-11-18T07:00:19.909Z,100339.69
2022-11-18T07:02:49.674Z,100351.47
2022-11-18T07:05:18.196Z,100352.88
2022-11-18T07:07:46.477Z,100356.25
2022-11-18T07:10:16.080Z,100355.97
2022-11-18T07:12:44.403Z,100370.78
2022-11-18T07:15:13.876Z,100362.53
2022-11-18T07:17:42.167Z,100363.38
2022-11-18T07:20:12.723Z,100367.16
2022-11-18T07:22:41.047Z,100372.06
2022-11-18T07:25:10.170Z,100377.53
2022-11-18T07:27:38.552Z,100385.09
2022-11-18T07:30:07.935Z,100392.25
2022-11-18T07:32:36.177Z,100396.59
2022-11-18T07:35:04.416Z,100395.19
2022-11-18T07:37:34.213Z,100397.31
2022-11-18T07:40:02.543Z,100409.78
2022-11-18T07:42:42.740Z,100400.19
2022-11-18T07:45:24.521Z,100399.44
2022-11-18T07:47:52.884Z,100400.38
2022-11-18T07:50:22.170Z,100394.69
2022-11-18T07:52:51.941Z,100401.41
2022-11-18T07:55:20.240Z,100403.25
2022-11-18T07:57:48.530Z,100408.66
2022-11-18T08:00:17.399Z,100408.44
2022-11-18T08:02:45.713Z,100417.56
2022-11-18T08:05:17.945Z,100415.44
2022-11-18T08:07:46.708Z,100419.03
2022-11-18T08:10:17.179Z,100421.25
2022-11-18T08:12:46.685Z,100431.84
2022-11-18T08:15:15.009Z,100439.06
2022-11-18T08:17:43.375Z,100435.75
2022-11-18T08:20:12.984Z,100443.00
2022-11-18T08:22:41.313Z,100449.56
2022-11-18T08:25:10.239Z,100451.03
2022-11-18T08:27:40.207Z,100453.72
2022-11-18T08:30:09.658Z,100464.13
2022-11-18T08:32:37.991Z,100454.22
2022-11-18T08:35:11.015Z,100466.78
2022-11-18T08:37:39.797Z,100474.97
2022-11-18T08:40:08.974Z,100470.13
2022-11-18T08:42:38.644Z,100468.13
2022-11-18T08:45:09.659Z,100475.00
2022-11-18T08:47:38.530Z,100464.97
2022-11-18T08:50:09.528Z,100465.81
2022-11-18T08:52:38.002Z,100457.41
2022-11-18T08:55:06.837Z,100463.28
2022-11-18T08:57:35.247Z,100462.28
2022-11-18T09:00:03.952Z,100471.00
2022-11-18T09:02:33.839Z,100463.47
2022-11-18T09:05:02.123Z,100464.50
2022-11-18T09:07:30.569Z,100469.06
2022-11-18T09:09:58.831Z,100464.50
2022-11-18T09:12:27.191Z,100467.56
2022-11-18T09:17:45.359Z,100455.81
2022-11-18T09:20:13.657Z,100465.16
2022-11-18T09:22:42.417Z,100460.47
2022-11-18T09:25:11.333Z,100460.66
2022-11-18T09:27:39.743Z,100464.81
2022-11-18T09:30:09.272Z,100469.19
2022-11-18T09:32:37.591Z,100467.16
2022-11-18T09:35:07.767Z,100472.84
2022-11-18T09:37:36.152Z,100466.16
2022-11-18T09:40:04.771Z,100476.22
2022-11-18T09:42:49.654Z,100477.88
2022-11-18T09:45:25.372Z,100475.38
2022-11-18T09:47:59.119Z,100483.25
2022-11-18T09:53:21.319Z,100473.13
2022-11-18T09:55:51.266Z,100472.44
2022-11-18T09:58:28.092Z,100478.31
2022-11-18T10:00:56.382Z,100469.59
2022-11-18T10:03:28.860Z,100471.75
2022-11-18T10:06:05.101Z,100459.97
2022-11-18T10:08:38.202Z,100458.06
2022-11-18T10:11:13.642Z,100385.66
2022-11-18T10:13:55.798Z,100442.88
2022-11-18T10:16:37.468Z,100436.13
2022-11-18T10:19:19.210Z,100437.31
2022-11-18T10:22:00.694Z,100429.63
2022-11-18T10:24:34.860Z,100420.44
2022-11-18T10:27:03.706Z,100412.44
2022-11-18T10:29:32.086Z,100431.72
2022-11-18T10:32:04.823Z,100427.72
2022-11-18T10:34:34.304Z,100422.03
2022-11-18T10:37:06.229Z,100292.19
2022-11-18T10:39:34.670Z,100414.09
2022-11-18T10:42:04.817Z,100411.19
2022-11-18T10:44:36.214Z,100413.81
2022-11-18T10:47:33.012Z,100407.25
2022-11-18T10:50:03.280Z,100404.06
2022-11-18T10:52:33.079Z,100407.69
2022-11-18T10:55:20.249Z,100407.31
2022-11-18T10:57:50.865Z,100368.59
2022-11-18T11:00:43.649Z,100368.00
2022-11-18T11:03:26.588Z,100380.84
2022-11-18T11:06:22.462Z,100384.03
2022-11-18T11:08:54.654Z,100339.44
2022-11-18T11:11:28.994Z,100372.25
2022-11-18T11:14:04.984Z,100372.94
2022-11-18T11:16:39.344Z,100372.56
2022-11-18T11:19:12.900Z,100359.94
2022-11-18T11:21:41.159Z,100356.88
2022-11-18T11:24:14.456Z,100352.00
2022-11-18T11:30:02.787Z,100348.28
2022-11-18T11:32:42.530Z,100338.34
2022-11-18T11:35:16.496Z,100338.00
2022-11-18T11:37:53.904Z,100334.28
2022-11-18T11:40:31.469Z,100320.72
2022-11-18T11:43:25.324Z,100318.03
2022-11-18T11:46:18.763Z,100307.38
2022-11-18T11:48:58.086Z,100301.31
2022-11-18T11:51:36.894Z,100291.22
2022-11-18T11:54:19.796Z,100284.50
2022-11-18T11:56:54.862Z,100280.50
2022-11-18T11:59:34.198Z,100272.25
2022-11-18T12:02:24.440Z,100265.84
2022-11-18T12:04:56.811Z,100267.53
2022-11-18T12:07:29.444Z,100261.81
2022-11-18T12:10:20.931Z,100249.84
2022-11-18T12:12:57.687Z,100243.81
2022-11-18T12:15:41.788Z,100246.50
2022-11-18T12:18:18.694Z,100253.56
2022-11-18T12:20:48.842Z,100250.66
2022-11-18T12:23:19.814Z,100254.66
2022-11-18T12:26:00.663Z,100243.72
2022-11-18T12:28:36.619Z,100237.13
2022-11-18T12:31:43.071Z,100226.19
2022-11-18T12:34:32.766Z,100226.56
2022-11-18T12:37:40.671Z,100215.31
2022-11-18T12:40:10.970Z,100209.09
2022-11-18T12:43:02.224Z,100205.03
2022-11-18T12:45:57.139Z,100215.78
2022-11-18T12:48:40.107Z,100205.75
2022-11-18T12:51:46.640Z,100219.69
2022-11-18T12:54:27.133Z,100229.53
2022-11-18T12:56:56.326Z,100240.69
2022-11-18T12:59:36.611Z,100253.00
2022-11-18T13:02:18.216Z,100230.16
2022-11-18T13:04:50.824Z,100246.25
2022-11-18T13:07:38.750Z,100236.31
2022-11-18T13:10:24.360Z,100247.72
2022-11-18T13:12:53.679Z,100241.31
2022-11-18T13:15:39.363Z,100229.16
2022-11-18T13:18:15.373Z,100221.94
2022-11-18T13:20:45.563Z,100214.22
2022-11-18T13:23:56.138Z,100217.09
2022-11-18T13:26:30.062Z,100209.78
2022-11-18T13:29:26.738Z,100199.03
2022-11-18T13:32:08.491Z,100204.41
2022-11-18T13:34:44.619Z,100185.06
2022-11-18T13:37:19.879Z,100202.38
2022-11-18T13:39:49.713Z,100202.56
2022-11-18T13:42:22.312Z,100202.19
2022-11-18T13:44:55.540Z,100200.34
2022-11-18T13:47:39.954Z,100180.75
2022-11-18T13:50:22.620Z,100162.13
2022-11-18T13:53:02.037Z,100157.75
2022-11-18T13:55:33.901Z,100166.66
2022-11-18T13:58:05.259Z,100176.59
2022-11-18T14:00:36.649Z,100143.56
2022-11-18T14:03:16.321Z,100159.72
2022-11-18T14:05:54.606Z,100161.09
2022-11-18T14:08:28.231Z,100159.44
2022-11-18T14:10:56.830Z,100158.41
2022-11-18T14:13:28.153Z,100158.06
2022-11-18T14:15:58.388Z,100171.03
2022-11-18T14:18:33.088Z,100164.63
2022-11-18T14:21:04.715Z,100160.44
2022-11-18T14:23:35.950Z,100159.44
2022-11-18T14:26:06.753Z,100157.75
2022-11-18T14:28:37.189Z,100157.56
2022-11-18T14:31:08.727Z,100155.91
2022-11-18T14:33:37.874Z,100148.03
2022-11-18T14:36:15.426Z,100126.88
2022-11-18T14:41:49.407Z,100159.69
2022-11-18T14:44:18.768Z,100164.03
2022-11-18T14:46:49.928Z,100165.06
2022-11-18T14:49:19.717Z,100169.97
2022-11-18T14:51:50.117Z,100167.66
2022-11-18T14:54:25.958Z,100171.72
2022-11-18T14:56:58.407Z,100172.94
2022-11-18T14:59:26.989Z,100181.53
2022-11-18T15:01:56.502Z,100178.19
2022-11-18T15:04:25.718Z,100175.84
2022-11-18T15:06:55.437Z,100174.81
2022-11-18T15:09:23.930Z,100208.63
2022-11-18T15:11:52.258Z,100135.72
2022-11-18T15:14:20.723Z,100194.53
2022-11-18T15:16:49.335Z,100201.28
2022-11-18T15:19:17.932Z,100198.13
2022-11-18T15:21:46.607Z,100198.84
2022-11-18T15:24:16.688Z,100199.56
2022-11-18T15:26:46.970Z,100196.91
2022-11-18T15:29:18.524Z,100173.06
2022-11-18T15:31:46.818Z,100213.44
2022-11-18T15:34:15.596Z,100182.19
2022-11-18T15:36:43.867Z,100218.16
2022-11-18T15:39:12.527Z,100222.72
2022-11-18T15:41:44.071Z,100229.66
2022-11-18T15:44:12.929Z,100230.66
2022-11-18T15:46:41.493Z,100232.88
2022-11-18T15:49:14.505Z,100215.47
2022-11-18T15:51:43.036Z,100189.56
2022-11-18T15:54:11.551Z,100222.91
2022-11-18T15:56:41.662Z,100221.25
2022-11-18T15:59:13.716Z,100207.41
2022-11-18T16:01:43.909Z,100212.59
2022-11-18T16:04:14.045Z,100207.75
2022-11-18T16:06:44.436Z,100207.25
2022-11-18T16:09:13.960Z,100211.28
2022-11-18T16:12:00.053Z,100187.69
2022-11-18T16:14:29.869Z,100197.75
2022-11-18T16:16:58.779Z,100189.53
2022-11-18T16:19:31.497Z,100182.84
2022-11-18T16:21:59.840Z,100177.31
2022-11-18T16:24:29.823Z,100192.72
2022-11-18T16:26:58.706Z,100201.59
2022-11-18T16:29:27.007Z,100202.25
2022-11-18T16:31:56.740Z,100202.41
2022-11-18T16:34:27.054Z,100199.41
2022-11-18T16:36:57.428Z,100206.59
2022-11-18T16:39:27.972Z,100191.38
2022-11-18T16:42:03.822Z,100199.41
2022-11-18T16:44:36.322Z,100194.03
2022-11-18T16:47:12.664Z,100205.59
2022-11-18T16:49:43.003Z,100175.75
2022-11-18T16:52:11.327Z,100210.91
2022-11-18T16:54:44.729Z,100216.09
2022-11-18T16:57:14.285Z,100232.94
2022-11-18T16:59:42.515Z,100239.81
2022-11-18T17:02:14.269Z,100244.81
2022-11-18T17:04:42.784Z,100246.44
2022-11-18T17:07:11.156Z,100250.59
2022-11-18T17:09:39.569Z,100244.06
2022-11-18T17:12:08.848Z,100245.03
2022-11-18T17:14:38.508Z,100242.63
2022-11-18T17:17:07.646Z,100229.56
2022-11-18T17:19:37.783Z,100244.09
2022-11-18T17:22:07.094Z,100236.03
2022-11-18T17:24:35.419Z,100242.84
2022-11-18T17:27:04.029Z,100245.81
2022-11-18T17:29:33.028Z,100234.22
2022-11-18T17:32:01.434Z,100242.41
2022-11-18T17:34:29.730Z,100236.72
2022-11-18T17:37:06.851Z,100237.72
2022-11-18T17:39:36.157Z,100248.72
2022-11-18T17:42:24.242Z,100256.88
2022-11-18T17:44:53.590Z,100255.75
2022-11-18T17:47:22.460Z,100254.59
2022-11-18T17:49:51.452Z,100255.09
2022-11-18T17:52:22.473Z,100266.97
2022-11-18T17:54:50.708Z,100265.06
2022-11-18T17:57:19.958Z,100274.69
2022-11-18T17:59:48.368Z,100269.41
2022-11-18T18:02:18.870Z,100279.59
2022-11-18T18:04:47.173Z,100276.56
2022-11-18T18:07:15.503Z,100276.94
2022-11-18T18:09:45.169Z,100282.66
2022-11-18T18:12:30.564Z,100280.22
2022-11-18T18:14:58.880Z,100293.31
2022-11-18T18:17:27.231Z,100279.75
2022-11-18T18:19:55.523Z,100288.81
2022-11-18T18:22:23.722Z,100298.59
2022-11-18T18:24:53.418Z,100304.03
2022-11-18T18:27:22.982Z,100304.88
2022-11-18T18:29:52.724Z,100308.44
2022-11-18T18:32:21.637Z,100296.53
2022-11-18T18:34:49.891Z,100308.34
2022-11-18T18:37:18.119Z,100309.78
2022-11-18T18:39:46.356Z,100305.06
2022-11-18T18:42:16.143Z,100311.38
2022-11-18T18:45:02.239Z,100318.00
2022-11-18T18:47:30.628Z,100314.34
2022-11-18T18:49:58.860Z,100308.47
2022-11-18T18:52:28.273Z,100313.13
2022-11-18T18:54:56.543Z,100316.91
2022-11-18T18:57:26.285Z,100321.84
2022-11-18T18:59:54.704Z,100326.13
2022-11-18T19:02:24.066Z,100320.09
2022-11-18T19:04:53.619Z,100319.69
2022-11-18T19:07:22.857Z,100320.84
2022-11-18T19:09:51.228Z,100326.66
2022-11-18T19:12:37.281Z,100332.28
2022-11-18T19:15:07.873Z,100333.41
2022-11-18T19:17:36.254Z,100332.44
2022-11-18T19:20:21.936Z,100338.25
2022-11-18T19:22:50.334Z,100339.66
2022-11-18T19:25:18.754Z,100340.34
2022-11-18T19:27:46.976Z,100343.16
2022-11-18T19:30:16.843Z,100342.47
2022-11-18T19:32:45.320Z,100352.28
2022-11-18T19:35:13.555Z,100356.75
2022-11-18T19:37:41.887Z,100359.28
2022-11-18T19:40:11.710Z,100359.00
2022-11-18T19:42:40.815Z,100357.47
2022-11-18T19:45:10.494Z,100359.06
2022-11-18T19:47:40.191Z,100370.50
2022-11-18T19:50:09.347Z,100322.03
2022-11-18T19:52:37.682Z,100379.22
2022-11-18T19:55:08.019Z,100360.59
2022-11-18T19:57:36.399Z,100366.34
2022-11-18T20:00:05.558Z,100347.81
2022-11-18T20:02:40.271Z,100359.03
2022-11-18T20:05:25.561Z,100350.06
2022-11-18T20:07:55.587Z,100351.59
2022-11-18T20:10:24.199Z,100355.97
2022-11-18T20:12:53.077Z,100351.47
2022-11-18T20:15:21.777Z,100357.63
2022-11-18T20:17:51.421Z,100356.50
2022-11-18T20:20:19.866Z,100359.72
2022-11-18T20:22:48.332Z,100358.06
2022-11-18T20:25:16.683Z,100354.00
2022-11-18T20:27:44.929Z,100351.47
2022-11-18T20:30:14.069Z,100353.31
2022-11-18T20:32:42.346Z,100357.06
2022-11-18T20:35:13.019Z,100349.94
2022-11-18T20:37:42.708Z,100353.00
2022-11-18T20:40:11.841Z,100350.34
2022-11-18T20:42:57.858Z,100358.75
2022-11-18T20:45:26.211Z,100351.19
2022-11-18T20:47:54.477Z,100362.38
2022-11-18T20:50:24.199Z,100352.97
2022-11-18T20:52:52.473Z,100365.13
2022-11-18T20:55:20.738Z,100363.47
2022-11-18T20:57:48.952Z,100361.63
2022-11-18T21:00:18.189Z,100365.13
2022-11-18T21:02:46.432Z,100363.75
2022-11-18T21:05:14.747Z,100365.72
2022-11-18T21:07:44.471Z,100356.19
2022-11-18T21:10:12.747Z,100356.84
2022-11-18T21:13:01.898Z,100363.41
2022-11-18T21:15:30.172Z,100365.63
2022-11-18T21:17:58.398Z,100360.28
2022-11-18T21:20:44.015Z,100357.78
2022-11-18T21:23:14.222Z,100363.97
2022-11-18T21:25:43.323Z,100332.59
2022-11-18T21:28:11.805Z,100354.00
2022-11-18T21:30:40.206Z,100348.44
2022-11-18T21:33:08.521Z,100342.84
2022-11-18T21:35:36.831Z,100341.03
2022-11-18T21:38:06.312Z,100355.75
2022-11-18T21:40:35.926Z,100341.25
2022-11-18T21:43:04.253Z,100348.81
2022-11-18T21:45:33.538Z,100343.38
2022-11-18T21:48:01.775Z,100340.13
2022-11-18T21:50:30.190Z,100344.78
2022-11-18T21:52:58.506Z,100343.25
2022-11-18T21:55:26.769Z,100343.63
2022-11-18T21:58:01.253Z,100346.31
2022-11-18T22:00:32.247Z,100346.72
2022-11-18T22:03:00.459Z,100347.84
2022-11-18T22:05:29.543Z,100351.47
2022-11-18T22:07:57.883Z,100350.06
2022-11-18T22:10:26.191Z,100347.75
2022-11-18T22:12:54.468Z,100343.69
2022-11-18T22:15:25.258Z,100345.50
2022-11-18T22:17:53.590Z,100354.31
2022-11-18T22:20:21.805Z,100340.91
2022-11-18T22:22:50.160Z,100343.25
2022-11-18T22:25:18.610Z,100346.03
2022-11-18T22:27:47.007Z,100346.72
2022-11-18T22:30:15.907Z,100344.19
2022-11-18T22:32:45.603Z,100348.22
2022-11-18T22:35:13.907Z,100351.13
2022-11-18T22:37:42.187Z,100348.75
2022-11-18T22:40:12.026Z,100348.00
2022-11-18T22:42:48.432Z,100346.56
2022-11-18T22:45:17.130Z,100356.75
2022-11-18T22:47:47.853Z,100343.72
2022-11-18T22:50:16.952Z,100348.50
2022-11-18T22:52:45.385Z,100350.59
2022-11-18T22:55:13.718Z,100341.78
2022-11-18T22:57:44.265Z,100335.50
2022-11-18T23:00:13.898Z,100325.84
2022-11-18T23:02:42.115Z,100330.31
2022-11-18T23:05:11.964Z,100328.63
2022-11-18T23:07:40.359Z,100318.50
2022-11-18T23:10:09.312Z,100314.88
2022-11-18T23:12:55.119Z,100293.66
2022-11-18T23:15:23.383Z,100312.06
2022-11-18T23:17:52.640Z,100304.47
2022-11-18T23:20:22.422Z,100307.66
2022-11-18T23:22:50.749Z,100304.41
2022-11-18T23:25:19.148Z,100300.66
2022-11-18T23:27:50.406Z,100302.22
2022-11-18T23:30:22.429Z,100290.75
2022-11-18T23:32:50.698Z,100304.97
2022-11-18T23:35:19.009Z,100301.53
2022-11-18T23:37:49.044Z,100285.91
2022-11-18T23:40:17.580Z,100284.81
2022-11-18T23:42:45.967Z,100286.63
2022-11-18T23:45:14.260Z,100286.94
2022-11-18T23:47:42.454Z,100274.22
2022-11-18T23:50:11.379Z,100272.72
2022-11-18T23:52:41.911Z,100258.03
2022-11-18T23:55:12.553Z,100264.25
2022-11-18T23:57:40.792Z,100264.69
